sensor_id;sensor_type;location;lat;lon;timestamp;P1;durP1;ratioP1;P2;durP2;ratioP2
18425;SDS011;9340;48.756;9.226;2024-01-15T00:02:04;19.27;;;11.20;;
18425;SDS011;9340;48.756;9.226;2024-01-15T00:04:31;18.23;;;10.73;;
18425;SDS011;9340;48.756;9.226;2024-01-15T00:07:01;15.40;;;10.17;;
18425;SDS011;9340;48.756;9.226;2024-01-15T00:09:29;16.73;;;11.20;;
18425;SDS011;9340;48.756;9.226;2024-01-15T00:11:55;15.70;;;11.03;;
18425;SDS011;9340;48.756;9.226;2024-01-15T00:14:22;17.33;;;10.43;;
18425;SDS011;9340;48.756;9.226;2024-01-15T00:16:49;16.77;;;10.73;;
18425;SDS011;9340;48.756;9.226;2024-01-15T00:19:17;15.57;;;11.43;;
18425;SDS011;9340;48.756;9.226;2024-01-15T00:21:44;16.57;;;11.27;;
18425;SDS011;9340;48.756;9.226;2024-01-15T00:24:11;18.53;;;11.27;;
18425;SDS011;9340;48.756;9.226;2024-01-15T00:26:38;17.83;;;12.03;;
18425;SDS011;9340;48.756;9.226;2024-01-15T00:29:06;15.97;;;11.37;;
18425;SDS011;9340;48.756;9.226;2024-01-15T00:31:32;17.13;;;11.33;;
18425;SDS011;9340;48.756;9.226;2024-01-15T00:33:59;20.17;;;11.83;;
18425;SDS011;9340;48.756;9.226;2024-01-15T00:36:27;19.40;;;12.47;;
18425;SDS011;9340;48.756;9.226;2024-01-15T00:38:54;19.97;;;12.00;;
18425;SDS011;9340;48.756;9.226;2024-01-15T00:41:21;18.73;;;11.73;;
18425;SDS011;9340;48.756;9.226;2024-01-15T00:43:48;18.80;;;11.77;;
18425;SDS011;9340;48.756;9.226;2024-01-15T00:46:15;18.13;;;10.57;;
18425;SDS011;9340;48.756;9.226;2024-01-15T00:48:42;17.23;;;10.73;;
18425;SDS011;9340;48.756;9.226;2024-01-15T00:51:09;17.87;;;11.43;;
18425;SDS011;9340;48.756;9.226;2024-01-15T00:53:37;18.07;;;11.20;;
18425;SDS011;9340;48.756;9.226;2024-01-15T00:56:03;15.83;;;10.67;;
18425;SDS011;9340;48.756;9.226;2024-01-15T00:58:30;17.07;;;10.60;;
18425;SDS011;9340;48.756;9.226;2024-01-15T01:00:57;18.07;;;10.87;;
18425;SDS011;9340;48.756;9.226;2024-01-15T01:03:23;17.63;;;11.63;;
18425;SDS011;9340;48.756;9.226;2024-01-15T01:05:50;15.07;;;10.17;;
18425;SDS011;9340;48.756;9.226;2024-01-15T01:08:17;15.67;;;9.93;;
18425;SDS011;9340;48.756;9.226;2024-01-15T01:10:45;19.60;;;11.80;;
18425;SDS011;9340;48.756;9.226;2024-01-15T01:13:11;15.93;;;9.60;;
18425;SDS011;9340;48.756;9.226;2024-01-15T01:15:38;18.17;;;10.57;;
18425;SDS011;9340;48.756;9.226;2024-01-15T01:18:05;16.13;;;10.27;;
18425;SDS011;9340;48.756;9.226;2024-01-15T01:20:31;18.03;;;10.63;;
18425;SDS011;9340;48.756;9.226;2024-01-15T01:22:58;18.20;;;11.07;;
18425;SDS011;9340;48.756;9.226;2024-01-15T01:25:25;17.20;;;9.63;;
18425;SDS011;9340;48.756;9.226;2024-01-15T01:27:53;15.17;;;9.63;;
18425;SDS011;9340;48.756;9.226;2024-01-15T01:30:20;15.77;;;9.97;;
18425;SDS011;9340;48.756;9.226;2024-01-15T01:32:46;16.60;;;9.77;;
18425;SDS011;9340;48.756;9.226;2024-01-15T01:35:13;17.83;;;10.43;;
18425;SDS011;9340;48.756;9.226;2024-01-15T01:37:40;18.30;;;11.23;;
18425;SDS011;9340;48.756;9.226;2024-01-15T01:40:07;17.87;;;10.80;;
18425;SDS011;9340;48.756;9.226;2024-01-15T01:42:34;15.87;;;9.90;;
18425;SDS011;9340;48.756;9.226;2024-01-15T01:45:02;16.23;;;9.30;;
18425;SDS011;9340;48.756;9.226;2024-01-15T01:47:29;15.57;;;9.73;;
18425;SDS011;9340;48.756;9.226;2024-01-15T01:49:56;14.80;;;10.20;;
18425;SDS011;9340;48.756;9.226;2024-01-15T01:52:23;16.23;;;10.03;;
18425;SDS011;9340;48.756;9.226;2024-01-15T01:54:50;16.23;;;10.80;;
18425;SDS011;9340;48.756;9.226;2024-01-15T01:57:18;16.60;;;10.17;;
18425;SDS011;9340;48.756;9.226;2024-01-15T01:59:45;14.10;;;9.60;;
18425;SDS011;9340;48.756;9.226;2024-01-15T02:02:14;15.73;;;10.30;;
18425;SDS011;9340;48.756;9.226;2024-01-15T02:04:42;13.43;;;9.87;;
18425;SDS011;9340;48.756;9.226;2024-01-15T02:07:09;15.37;;;9.67;;
18425;SDS011;9340;48.756;9.226;2024-01-15T02:09:36;15.20;;;9.77;;
18425;SDS011;9340;48.756;9.226;2024-01-15T02:12:03;14.97;;;10.03;;
18425;SDS011;9340;48.756;9.226;2024-01-15T02:14:30;12.67;;;9.10;;
18425;SDS011;9340;48.756;9.226;2024-01-15T02:16:57;17.60;;;10.27;;
18425;SDS011;9340;48.756;9.226;2024-01-15T02:19:25;14.63;;;9.77;;
18425;SDS011;9340;48.756;9.226;2024-01-15T02:21:52;16.17;;;9.67;;
18425;SDS011;9340;48.756;9.226;2024-01-15T02:24:20;14.50;;;9.67;;
18425;SDS011;9340;48.756;9.226;2024-01-15T02:26:46;15.97;;;10.07;;
18425;SDS011;9340;48.756;9.226;2024-01-15T02:29:13;14.50;;;9.37;;
18425;SDS011;9340;48.756;9.226;2024-01-15T02:31:40;12.97;;;9.13;;
18425;SDS011;9340;48.756;9.226;2024-01-15T02:34:07;16.93;;;10.40;;
18425;SDS011;9340;48.756;9.226;2024-01-15T02:36:34;14.73;;;10.17;;
18425;SDS011;9340;48.756;9.226;2024-01-15T02:39:00;16.17;;;10.27;;
18425;SDS011;9340;48.756;9.226;2024-01-15T02:41:28;18.10;;;10.67;;
18425;SDS011;9340;48.756;9.226;2024-01-15T02:43:55;15.23;;;10.17;;
18425;SDS011;9340;48.756;9.226;2024-01-15T02:46:21;16.77;;;10.40;;
18425;SDS011;9340;48.756;9.226;2024-01-15T02:48:48;16.17;;;10.60;;
18425;SDS011;9340;48.756;9.226;2024-01-15T02:51:15;14.40;;;9.57;;
18425;SDS011;9340;48.756;9.226;2024-01-15T02:53:42;13.97;;;9.47;;
18425;SDS011;9340;48.756;9.226;2024-01-15T02:56:09;14.93;;;9.87;;
18425;SDS011;9340;48.756;9.226;2024-01-15T02:58:37;15.70;;;10.27;;
18425;SDS011;9340;48.756;9.226;2024-01-15T03:01:03;15.23;;;9.67;;
18425;SDS011;9340;48.756;9.226;2024-01-15T03:03:30;15.23;;;10.23;;
18425;SDS011;9340;48.756;9.226;2024-01-15T03:05:58;15.50;;;9.80;;
18425;SDS011;9340;48.756;9.226;2024-01-15T03:08:24;14.70;;;9.00;;
18425;SDS011;9340;48.756;9.226;2024-01-15T03:10:51;18.83;;;10.23;;
18425;SDS011;9340;48.756;9.226;2024-01-15T03:13:18;15.90;;;9.73;;
18425;SDS011;9340;48.756;9.226;2024-01-15T03:15:46;15.33;;;9.77;;
18425;SDS011;9340;48.756;9.226;2024-01-15T03:18:13;14.63;;;9.40;;
18425;SDS011;9340;48.756;9.226;2024-01-15T03:20:39;15.57;;;9.20;;
18425;SDS011;9340;48.756;9.226;2024-01-15T03:23:06;14.37;;;10.03;;
18425;SDS011;9340;48.756;9.226;2024-01-15T03:25:33;15.77;;;9.47;;
18425;SDS011;9340;48.756;9.226;2024-01-15T03:27:59;14.73;;;9.67;;
18425;SDS011;9340;48.756;9.226;2024-01-15T03:30:26;16.17;;;10.00;;
18425;SDS011;9340;48.756;9.226;2024-01-15T03:32:54;17.63;;;10.87;;
18425;SDS011;9340;48.756;9.226;2024-01-15T03:35:21;16.93;;;10.27;;
18425;SDS011;9340;48.756;9.226;2024-01-15T03:37:48;16.23;;;9.63;;
18425;SDS011;9340;48.756;9.226;2024-01-15T03:40:14;15.00;;;9.67;;
18425;SDS011;9340;48.756;9.226;2024-01-15T03:42:41;15.80;;;9.07;;
18425;SDS011;9340;48.756;9.226;2024-01-15T03:45:08;16.93;;;9.37;;
18425;SDS011;9340;48.756;9.226;2024-01-15T03:47:35;13.50;;;9.57;;
18425;SDS011;9340;48.756;9.226;2024-01-15T03:50:03;16.50;;;9.40;;
18425;SDS011;9340;48.756;9.226;2024-01-15T03:52:30;16.90;;;9.90;;
18425;SDS011;9340;48.756;9.226;2024-01-15T03:54:57;18.63;;;10.97;;
18425;SDS011;9340;48.756;9.226;2024-01-15T03:57:23;17.27;;;10.97;;
18425;SDS011;9340;48.756;9.226;2024-01-15T03:59:50;18.40;;;11.40;;
18425;SDS011;9340;48.756;9.226;2024-01-15T04:02:17;16.70;;;10.23;;
18425;SDS011;9340;48.756;9.226;2024-01-15T04:04:43;17.53;;;10.97;;
18425;SDS011;9340;48.756;9.226;2024-01-15T04:07:11;17.17;;;10.47;;
18425;SDS011;9340;48.756;9.226;2024-01-15T04:09:38;18.07;;;10.67;;
18425;SDS011;9340;48.756;9.226;2024-01-15T04:12:05;16.57;;;10.33;;
18425;SDS011;9340;48.756;9.226;2024-01-15T04:14:32;16.77;;;10.60;;
18425;SDS011;9340;48.756;9.226;2024-01-15T04:16:59;17.40;;;9.93;;
18425;SDS011;9340;48.756;9.226;2024-01-15T04:19:25;15.67;;;10.67;;
18425;SDS011;9340;48.756;9.226;2024-01-15T04:21:52;17.77;;;12.60;;
18425;SDS011;9340;48.756;9.226;2024-01-15T04:24:20;15.73;;;11.80;;
18425;SDS011;9340;48.756;9.226;2024-01-15T04:26:46;17.20;;;12.20;;
18425;SDS011;9340;48.756;9.226;2024-01-15T04:29:14;14.17;;;9.50;;
18425;SDS011;9340;48.756;9.226;2024-01-15T04:31:41;15.30;;;10.17;;
18425;SDS011;9340;48.756;9.226;2024-01-15T04:34:08;13.60;;;8.60;;
18425;SDS011;9340;48.756;9.226;2024-01-15T04:36:38;14.77;;;8.53;;
18425;SDS011;9340;48.756;9.226;2024-01-15T04:39:05;14.13;;;8.77;;
18425;SDS011;9340;48.756;9.226;2024-01-15T04:41:33;15.20;;;9.23;;
18425;SDS011;9340;48.756;9.226;2024-01-15T04:44:00;12.60;;;8.47;;
18425;SDS011;9340;48.756;9.226;2024-01-15T04:46:26;11.80;;;7.63;;
18425;SDS011;9340;48.756;9.226;2024-01-15T04:48:53;14.83;;;8.97;;
18425;SDS011;9340;48.756;9.226;2024-01-15T04:51:20;13.67;;;8.80;;
18425;SDS011;9340;48.756;9.226;2024-01-15T04:53:46;14.73;;;9.30;;
18425;SDS011;9340;48.756;9.226;2024-01-15T04:56:13;14.93;;;8.77;;
18425;SDS011;9340;48.756;9.226;2024-01-15T04:58:41;12.87;;;8.93;;
18425;SDS011;9340;48.756;9.226;2024-01-15T05:01:08;13.70;;;8.90;;
18425;SDS011;9340;48.756;9.226;2024-01-15T05:03:35;12.37;;;8.53;;
18425;SDS011;9340;48.756;9.226;2024-01-15T05:06:01;16.40;;;9.47;;
18425;SDS011;9340;48.756;9.226;2024-01-15T05:08:28;11.73;;;8.33;;
18425;SDS011;9340;48.756;9.226;2024-01-15T05:10:55;13.43;;;8.73;;
18425;SDS011;9340;48.756;9.226;2024-01-15T05:13:22;12.53;;;8.23;;
18425;SDS011;9340;48.756;9.226;2024-01-15T05:15:50;11.97;;;7.87;;
18425;SDS011;9340;48.756;9.226;2024-01-15T05:18:16;12.43;;;8.63;;
18425;SDS011;9340;48.756;9.226;2024-01-15T05:20:43;12.70;;;8.37;;
18425;SDS011;9340;48.756;9.226;2024-01-15T05:23:10;12.83;;;8.67;;
18425;SDS011;9340;48.756;9.226;2024-01-15T05:25:37;15.07;;;8.27;;
18425;SDS011;9340;48.756;9.226;2024-01-15T05:28:04;10.40;;;8.27;;
18425;SDS011;9340;48.756;9.226;2024-01-15T05:30:31;14.93;;;9.07;;
18425;SDS011;9340;48.756;9.226;2024-01-15T05:32:59;12.80;;;8.07;;
18425;SDS011;9340;48.756;9.226;2024-01-15T05:35:26;13.07;;;9.47;;
18425;SDS011;9340;48.756;9.226;2024-01-15T05:37:52;12.50;;;8.07;;
18425;SDS011;9340;48.756;9.226;2024-01-15T05:40:19;11.20;;;8.43;;
18425;SDS011;9340;48.756;9.226;2024-01-15T05:42:46;13.53;;;8.13;;
18425;SDS011;9340;48.756;9.226;2024-01-15T05:45:12;10.57;;;7.77;;
18425;SDS011;9340;48.756;9.226;2024-01-15T05:47:39;11.63;;;8.20;;
18425;SDS011;9340;48.756;9.226;2024-01-15T05:50:07;15.77;;;9.70;;
18425;SDS011;9340;48.756;9.226;2024-01-15T05:52:34;12.57;;;8.93;;
18425;SDS011;9340;48.756;9.226;2024-01-15T05:55:01;12.57;;;9.20;;
18425;SDS011;9340;48.756;9.226;2024-01-15T05:57:28;13.43;;;9.13;;
18425;SDS011;9340;48.756;9.226;2024-01-15T05:59:55;15.43;;;9.73;;
18425;SDS011;9340;48.756;9.226;2024-01-15T06:02:22;14.50;;;9.23;;
18425;SDS011;9340;48.756;9.226;2024-01-15T06:04:49;13.83;;;9.80;;
18425;SDS011;9340;48.756;9.226;2024-01-15T06:07:17;13.57;;;9.40;;
18425;SDS011;9340;48.756;9.226;2024-01-15T06:09:43;18.00;;;10.90;;
18425;SDS011;9340;48.756;9.226;2024-01-15T06:12:10;15.53;;;10.37;;
18425;SDS011;9340;48.756;9.226;2024-01-15T06:14:37;15.73;;;10.23;;
18425;SDS011;9340;48.756;9.226;2024-01-15T06:17:04;14.27;;;10.17;;
18425;SDS011;9340;48.756;9.226;2024-01-15T06:19:30;16.00;;;10.77;;
18425;SDS011;9340;48.756;9.226;2024-01-15T06:21:57;15.83;;;11.23;;
18425;SDS011;9340;48.756;9.226;2024-01-15T06:24:25;14.40;;;10.53;;
18425;SDS011;9340;48.756;9.226;2024-01-15T06:26:52;17.03;;;10.77;;
18425;SDS011;9340;48.756;9.226;2024-01-15T06:29:18;14.40;;;9.90;;
18425;SDS011;9340;48.756;9.226;2024-01-15T06:31:45;15.97;;;10.03;;
18425;SDS011;9340;48.756;9.226;2024-01-15T06:34:12;14.30;;;9.87;;
18425;SDS011;9340;48.756;9.226;2024-01-15T06:36:38;19.00;;;11.73;;
18425;SDS011;9340;48.756;9.226;2024-01-15T06:39:05;14.20;;;9.67;;
18425;SDS011;9340;48.756;9.226;2024-01-15T06:41:33;14.23;;;9.60;;
18425;SDS011;9340;48.756;9.226;2024-01-15T06:44:00;14.43;;;10.07;;
18425;SDS011;9340;48.756;9.226;2024-01-15T06:46:26;15.00;;;9.87;;
18425;SDS011;9340;48.756;9.226;2024-01-15T06:48:53;14.50;;;9.70;;
18425;SDS011;9340;48.756;9.226;2024-01-15T06:51:20;14.73;;;10.00;;
18425;SDS011;9340;48.756;9.226;2024-01-15T06:53:46;12.90;;;9.10;;
18425;SDS011;9340;48.756;9.226;2024-01-15T06:56:13;15.20;;;9.77;;
18425;SDS011;9340;48.756;9.226;2024-01-15T06:58:41;15.00;;;10.27;;
18425;SDS011;9340;48.756;9.226;2024-01-15T07:01:08;15.63;;;9.63;;
18425;SDS011;9340;48.756;9.226;2024-01-15T07:03:35;14.53;;;10.13;;
18425;SDS011;9340;48.756;9.226;2024-01-15T07:06:02;14.83;;;10.07;;
18425;SDS011;9340;48.756;9.226;2024-01-15T07:08:29;12.23;;;8.77;;
18425;SDS011;9340;48.756;9.226;2024-01-15T07:10:55;12.97;;;8.43;;
18425;SDS011;9340;48.756;9.226;2024-01-15T07:13:22;15.70;;;11.07;;
18425;SDS011;9340;48.756;9.226;2024-01-15T07:15:50;10.60;;;7.77;;
18425;SDS011;9340;48.756;9.226;2024-01-15T07:18:17;12.00;;;8.10;;
18425;SDS011;9340;48.756;9.226;2024-01-15T07:20:43;11.47;;;8.27;;
18425;SDS011;9340;48.756;9.226;2024-01-15T07:23:10;12.20;;;7.73;;
18425;SDS011;9340;48.756;9.226;2024-01-15T07:25:37;9.97;;;7.50;;
18425;SDS011;9340;48.756;9.226;2024-01-15T07:28:04;10.87;;;7.77;;
18425;SDS011;9340;48.756;9.226;2024-01-15T07:30:31;10.70;;;7.43;;
18425;SDS011;9340;48.756;9.226;2024-01-15T07:32:59;10.23;;;7.30;;
18425;SDS011;9340;48.756;9.226;2024-01-15T07:35:25;11.10;;;7.93;;
18425;SDS011;9340;48.756;9.226;2024-01-15T07:37:52;12.47;;;9.27;;
18425;SDS011;9340;48.756;9.226;2024-01-15T07:40:19;11.10;;;7.80;;
18425;SDS011;9340;48.756;9.226;2024-01-15T07:42:46;11.57;;;8.60;;
18425;SDS011;9340;48.756;9.226;2024-01-15T07:45:12;13.03;;;8.87;;
18425;SDS011;9340;48.756;9.226;2024-01-15T07:47:39;12.67;;;8.70;;
18425;SDS011;9340;48.756;9.226;2024-01-15T07:50:07;10.57;;;7.40;;
18425;SDS011;9340;48.756;9.226;2024-01-15T07:52:34;11.07;;;8.07;;
18425;SDS011;9340;48.756;9.226;2024-01-15T07:55:01;11.37;;;8.40;;
18425;SDS011;9340;48.756;9.226;2024-01-15T07:57:28;11.87;;;8.50;;
18425;SDS011;9340;48.756;9.226;2024-01-15T07:59:55;11.23;;;7.07;;
18425;SDS011;9340;48.756;9.226;2024-01-15T08:02:22;12.87;;;8.17;;
18425;SDS011;9340;48.756;9.226;2024-01-15T08:04:48;13.27;;;9.13;;
18425;SDS011;9340;48.756;9.226;2024-01-15T08:07:16;13.70;;;8.80;;
18425;SDS011;9340;48.756;9.226;2024-01-15T08:09:43;10.13;;;7.40;;
18425;SDS011;9340;48.756;9.226;2024-01-15T08:12:12;11.10;;;7.57;;
18425;SDS011;9340;48.756;9.226;2024-01-15T08:14:39;11.30;;;7.73;;
18425;SDS011;9340;48.756;9.226;2024-01-15T08:17:06;10.77;;;6.93;;
18425;SDS011;9340;48.756;9.226;2024-01-15T08:19:32;10.50;;;7.43;;
18425;SDS011;9340;48.756;9.226;2024-01-15T08:21:59;10.97;;;7.67;;
18425;SDS011;9340;48.756;9.226;2024-01-15T08:24:27;11.23;;;7.47;;
18425;SDS011;9340;48.756;9.226;2024-01-15T08:26:54;11.90;;;7.57;;
18425;SDS011;9340;48.756;9.226;2024-01-15T08:29:21;9.10;;;6.90;;
18425;SDS011;9340;48.756;9.226;2024-01-15T08:31:49;11.30;;;7.63;;
18425;SDS011;9340;48.756;9.226;2024-01-15T08:34:16;9.57;;;6.87;;
18425;SDS011;9340;48.756;9.226;2024-01-15T08:36:43;12.23;;;8.53;;
18425;SDS011;9340;48.756;9.226;2024-01-15T08:39:09;8.43;;;6.70;;
18425;SDS011;9340;48.756;9.226;2024-01-15T08:41:37;12.23;;;8.90;;
18425;SDS011;9340;48.756;9.226;2024-01-15T08:44:04;8.73;;;6.30;;
18425;SDS011;9340;48.756;9.226;2024-01-15T08:46:31;12.83;;;7.27;;
18425;SDS011;9340;48.756;9.226;2024-01-15T08:48:57;9.23;;;6.80;;
18425;SDS011;9340;48.756;9.226;2024-01-15T08:51:24;9.77;;;6.40;;
18425;SDS011;9340;48.756;9.226;2024-01-15T08:53:51;9.77;;;6.50;;
18425;SDS011;9340;48.756;9.226;2024-01-15T08:56:18;9.40;;;6.40;;
18425;SDS011;9340;48.756;9.226;2024-01-15T08:58:46;10.27;;;8.20;;
18425;SDS011;9340;48.756;9.226;2024-01-15T09:01:12;9.73;;;6.67;;
18425;SDS011;9340;48.756;9.226;2024-01-15T09:03:39;7.90;;;6.07;;
18425;SDS011;9340;48.756;9.226;2024-01-15T09:06:07;8.77;;;6.23;;
18425;SDS011;9340;48.756;9.226;2024-01-15T09:08:34;7.73;;;5.57;;
18425;SDS011;9340;48.756;9.226;2024-01-15T09:11:02;8.30;;;5.97;;
18425;SDS011;9340;48.756;9.226;2024-01-15T09:13:28;7.73;;;5.83;;
18425;SDS011;9340;48.756;9.226;2024-01-15T09:15:57;8.87;;;5.93;;
18425;SDS011;9340;48.756;9.226;2024-01-15T09:18:24;6.63;;;5.80;;
18425;SDS011;9340;48.756;9.226;2024-01-15T09:20:51;7.43;;;5.73;;
18425;SDS011;9340;48.756;9.226;2024-01-15T09:23:17;7.20;;;5.60;;
18425;SDS011;9340;48.756;9.226;2024-01-15T09:25:44;10.40;;;6.63;;
18425;SDS011;9340;48.756;9.226;2024-01-15T09:28:11;8.53;;;6.10;;
18425;SDS011;9340;48.756;9.226;2024-01-15T09:30:37;8.50;;;6.40;;
18425;SDS011;9340;48.756;9.226;2024-01-15T09:33:05;8.07;;;5.37;;
18425;SDS011;9340;48.756;9.226;2024-01-15T09:35:32;10.20;;;6.50;;
18425;SDS011;9340;48.756;9.226;2024-01-15T09:37:59;8.00;;;5.80;;
18425;SDS011;9340;48.756;9.226;2024-01-15T09:40:25;5.63;;;4.33;;
18425;SDS011;9340;48.756;9.226;2024-01-15T09:42:57;7.63;;;4.97;;
18425;SDS011;9340;48.756;9.226;2024-01-15T09:45:24;10.37;;;5.57;;
18425;SDS011;9340;48.756;9.226;2024-01-15T09:47:52;11.60;;;7.87;;
18425;SDS011;9340;48.756;9.226;2024-01-15T09:50:20;9.23;;;6.00;;
18425;SDS011;9340;48.756;9.226;2024-01-15T09:52:46;10.77;;;6.63;;
18425;SDS011;9340;48.756;9.226;2024-01-15T09:55:15;7.30;;;4.57;;
18425;SDS011;9340;48.756;9.226;2024-01-15T09:57:43;9.17;;;5.80;;
18425;SDS011;9340;48.756;9.226;2024-01-15T10:00:11;7.87;;;5.83;;
18425;SDS011;9340;48.756;9.226;2024-01-15T10:02:38;7.27;;;4.87;;
18425;SDS011;9340;48.756;9.226;2024-01-15T10:05:06;6.13;;;5.03;;
18425;SDS011;9340;48.756;9.226;2024-01-15T10:07:35;8.23;;;5.03;;
18425;SDS011;9340;48.756;9.226;2024-01-15T10:10:03;9.30;;;6.33;;
18425;SDS011;9340;48.756;9.226;2024-01-15T10:12:30;7.40;;;5.33;;
18425;SDS011;9340;48.756;9.226;2024-01-15T10:14:57;9.43;;;5.73;;
18425;SDS011;9340;48.756;9.226;2024-01-15T10:17:24;6.53;;;4.13;;
18425;SDS011;9340;48.756;9.226;2024-01-15T10:19:52;6.30;;;4.90;;
18425;SDS011;9340;48.756;9.226;2024-01-15T10:22:19;7.60;;;5.43;;
18425;SDS011;9340;48.756;9.226;2024-01-15T10:24:48;6.57;;;4.90;;
18425;SDS011;9340;48.756;9.226;2024-01-15T10:27:14;8.60;;;5.93;;
18425;SDS011;9340;48.756;9.226;2024-01-15T10:29:42;8.47;;;5.33;;
18425;SDS011;9340;48.756;9.226;2024-01-15T10:32:08;6.43;;;5.43;;
18425;SDS011;9340;48.756;9.226;2024-01-15T10:34:37;5.50;;;4.63;;
18425;SDS011;9340;48.756;9.226;2024-01-15T10:37:04;6.93;;;4.90;;
18425;SDS011;9340;48.756;9.226;2024-01-15T10:39:33;7.13;;;4.77;;
18425;SDS011;9340;48.756;9.226;2024-01-15T10:42:01;6.90;;;5.23;;
18425;SDS011;9340;48.756;9.226;2024-01-15T10:44:29;7.03;;;5.20;;
18425;SDS011;9340;48.756;9.226;2024-01-15T10:46:55;5.53;;;4.50;;
18425;SDS011;9340;48.756;9.226;2024-01-15T10:49:23;8.50;;;5.30;;
18425;SDS011;9340;48.756;9.226;2024-01-15T10:51:51;7.77;;;5.67;;
18425;SDS011;9340;48.756;9.226;2024-01-15T10:54:19;6.23;;;4.47;;
18425;SDS011;9340;48.756;9.226;2024-01-15T10:56:48;7.00;;;5.03;;
18425;SDS011;9340;48.756;9.226;2024-01-15T10:59:17;6.10;;;4.97;;
18425;SDS011;9340;48.756;9.226;2024-01-15T11:01:46;5.80;;;4.50;;
18425;SDS011;9340;48.756;9.226;2024-01-15T11:04:13;10.23;;;4.77;;
18425;SDS011;9340;48.756;9.226;2024-01-15T11:06:42;7.30;;;5.17;;
18425;SDS011;9340;48.756;9.226;2024-01-15T11:09:11;7.77;;;4.47;;
18425;SDS011;9340;48.756;9.226;2024-01-15T11:11:40;8.03;;;4.50;;
18425;SDS011;9340;48.756;9.226;2024-01-15T11:14:08;5.97;;;4.63;;
18425;SDS011;9340;48.756;9.226;2024-01-15T11:16:54;5.67;;;4.23;;
18425;SDS011;9340;48.756;9.226;2024-01-15T11:19:24;6.20;;;4.93;;
18425;SDS011;9340;48.756;9.226;2024-01-15T11:21:50;5.97;;;4.63;;
18425;SDS011;9340;48.756;9.226;2024-01-15T11:24:33;8.20;;;5.23;;
18425;SDS011;9340;48.756;9.226;2024-01-15T11:27:01;7.53;;;5.37;;
18425;SDS011;9340;48.756;9.226;2024-01-15T11:29:29;10.10;;;5.83;;
18425;SDS011;9340;48.756;9.226;2024-01-15T11:31:59;8.20;;;5.20;;
18425;SDS011;9340;48.756;9.226;2024-01-15T11:37:24;6.60;;;4.97;;
18425;SDS011;9340;48.756;9.226;2024-01-15T11:39:52;7.43;;;5.97;;
18425;SDS011;9340;48.756;9.226;2024-01-15T11:42:20;6.03;;;5.00;;
18425;SDS011;9340;48.756;9.226;2024-01-15T11:44:47;7.30;;;5.40;;
18425;SDS011;9340;48.756;9.226;2024-01-15T11:47:16;5.43;;;4.40;;
18425;SDS011;9340;48.756;9.226;2024-01-15T11:50:12;8.00;;;4.87;;
18425;SDS011;9340;48.756;9.226;2024-01-15T11:52:38;6.17;;;5.57;;
18425;SDS011;9340;48.756;9.226;2024-01-15T11:55:19;6.47;;;5.07;;
18425;SDS011;9340;48.756;9.226;2024-01-15T11:57:49;5.90;;;4.80;;
18425;SDS011;9340;48.756;9.226;2024-01-15T12:00:17;6.13;;;5.30;;
18425;SDS011;9340;48.756;9.226;2024-01-15T12:02:46;5.93;;;5.07;;
18425;SDS011;9340;48.756;9.226;2024-01-15T12:05:14;8.70;;;7.13;;
18425;SDS011;9340;48.756;9.226;2024-01-15T12:07:43;6.27;;;5.00;;
18425;SDS011;9340;48.756;9.226;2024-01-15T12:10:11;6.10;;;4.97;;
18425;SDS011;9340;48.756;9.226;2024-01-15T12:12:39;6.67;;;5.17;;
18425;SDS011;9340;48.756;9.226;2024-01-15T12:15:16;6.57;;;5.37;;
18425;SDS011;9340;48.756;9.226;2024-01-15T12:17:43;7.23;;;5.40;;
18425;SDS011;9340;48.756;9.226;2024-01-15T12:20:13;8.70;;;7.83;;
18425;SDS011;9340;48.756;9.226;2024-01-15T12:22:40;6.03;;;5.03;;
18425;SDS011;9340;48.756;9.226;2024-01-15T12:25:08;7.83;;;4.93;;
18425;SDS011;9340;48.756;9.226;2024-01-15T12:27:35;7.80;;;5.30;;
18425;SDS011;9340;48.756;9.226;2024-01-15T12:30:03;7.37;;;5.80;;
18425;SDS011;9340;48.756;9.226;2024-01-15T12:32:30;9.37;;;6.03;;
18425;SDS011;9340;48.756;9.226;2024-01-15T12:34:57;7.20;;;6.13;;
18425;SDS011;9340;48.756;9.226;2024-01-15T12:37:25;10.13;;;7.60;;
18425;SDS011;9340;48.756;9.226;2024-01-15T12:39:51;6.83;;;5.37;;
18425;SDS011;9340;48.756;9.226;2024-01-15T12:42:20;6.60;;;5.33;;
18425;SDS011;9340;48.756;9.226;2024-01-15T12:44:47;8.00;;;5.93;;
18425;SDS011;9340;48.756;9.226;2024-01-15T12:47:14;9.43;;;5.87;;
18425;SDS011;9340;48.756;9.226;2024-01-15T12:49:46;7.97;;;5.87;;
18425;SDS011;9340;48.756;9.226;2024-01-15T12:52:13;9.30;;;6.40;;
18425;SDS011;9340;48.756;9.226;2024-01-15T12:54:41;7.97;;;6.20;;
18425;SDS011;9340;48.756;9.226;2024-01-15T12:57:07;12.77;;;7.77;;
18425;SDS011;9340;48.756;9.226;2024-01-15T12:59:34;7.60;;;6.00;;
18425;SDS011;9340;48.756;9.226;2024-01-15T13:02:00;8.40;;;6.13;;
18425;SDS011;9340;48.756;9.226;2024-01-15T13:04:27;7.53;;;5.97;;
18425;SDS011;9340;48.756;9.226;2024-01-15T13:06:54;8.40;;;5.73;;
18425;SDS011;9340;48.756;9.226;2024-01-15T13:09:22;9.10;;;6.33;;
18425;SDS011;9340;48.756;9.226;2024-01-15T13:11:49;10.00;;;8.50;;
18425;SDS011;9340;48.756;9.226;2024-01-15T13:14:17;6.77;;;5.70;;
18425;SDS011;9340;48.756;9.226;2024-01-15T13:16:44;8.33;;;6.27;;
18425;SDS011;9340;48.756;9.226;2024-01-15T13:19:10;5.80;;;5.17;;
18425;SDS011;9340;48.756;9.226;2024-01-15T13:21:38;6.17;;;5.07;;
18425;SDS011;9340;48.756;9.226;2024-01-15T13:24:05;8.60;;;5.43;;
18425;SDS011;9340;48.756;9.226;2024-01-15T13:26:32;6.10;;;5.00;;
18425;SDS011;9340;48.756;9.226;2024-01-15T13:29:00;7.80;;;5.10;;
18425;SDS011;9340;48.756;9.226;2024-01-15T13:31:28;7.13;;;5.50;;
18425;SDS011;9340;48.756;9.226;2024-01-15T13:33:55;6.07;;;4.97;;
18425;SDS011;9340;48.756;9.226;2024-01-15T13:36:22;5.60;;;4.40;;
18425;SDS011;9340;48.756;9.226;2024-01-15T13:38:49;7.53;;;5.13;;
18425;SDS011;9340;48.756;9.226;2024-01-15T13:41:16;8.10;;;4.87;;
18425;SDS011;9340;48.756;9.226;2024-01-15T13:43:44;4.63;;;4.07;;
18425;SDS011;9340;48.756;9.226;2024-01-15T13:46:12;6.03;;;5.07;;
18425;SDS011;9340;48.756;9.226;2024-01-15T13:48:39;5.93;;;4.60;;
18425;SDS011;9340;48.756;9.226;2024-01-15T13:51:05;8.07;;;5.20;;
18425;SDS011;9340;48.756;9.226;2024-01-15T13:53:32;5.53;;;4.63;;
18425;SDS011;9340;48.756;9.226;2024-01-15T13:55:59;9.30;;;6.17;;
18425;SDS011;9340;48.756;9.226;2024-01-15T13:58:25;13.63;;;8.20;;
18425;SDS011;9340;48.756;9.226;2024-01-15T14:00:52;86.03;;;37.90;;
18425;SDS011;9340;48.756;9.226;2024-01-15T14:03:20;34.40;;;17.13;;
18425;SDS011;9340;48.756;9.226;2024-01-15T14:05:47;35.27;;;18.13;;
18425;SDS011;9340;48.756;9.226;2024-01-15T14:08:14;6.80;;;6.10;;
18425;SDS011;9340;48.756;9.226;2024-01-15T14:10:41;6.77;;;5.00;;
18425;SDS011;9340;48.756;9.226;2024-01-15T14:13:07;43.67;;;19.60;;
18425;SDS011;9340;48.756;9.226;2024-01-15T14:15:34;12.60;;;7.53;;
18425;SDS011;9340;48.756;9.226;2024-01-15T14:18:01;7.37;;;4.80;;
18425;SDS011;9340;48.756;9.226;2024-01-15T14:20:30;10.13;;;6.40;;
18425;SDS011;9340;48.756;9.226;2024-01-15T14:22:56;9.57;;;6.30;;
18425;SDS011;9340;48.756;9.226;2024-01-15T14:25:23;7.53;;;5.53;;
18425;SDS011;9340;48.756;9.226;2024-01-15T14:27:50;15.13;;;10.73;;
18425;SDS011;9340;48.756;9.226;2024-01-15T14:30:16;8.77;;;5.70;;
18425;SDS011;9340;48.756;9.226;2024-01-15T14:32:43;7.73;;;5.87;;
18425;SDS011;9340;48.756;9.226;2024-01-15T14:35:10;6.83;;;4.73;;
18425;SDS011;9340;48.756;9.226;2024-01-15T14:37:38;6.63;;;4.50;;
18425;SDS011;9340;48.756;9.226;2024-01-15T14:40:05;5.63;;;3.63;;
18425;SDS011;9340;48.756;9.226;2024-01-15T14:42:33;4.23;;;3.47;;
18425;SDS011;9340;48.756;9.226;2024-01-15T14:45:01;4.73;;;3.47;;
18425;SDS011;9340;48.756;9.226;2024-01-15T14:47:29;4.57;;;3.07;;
18425;SDS011;9340;48.756;9.226;2024-01-15T14:49:57;3.20;;;2.90;;
18425;SDS011;9340;48.756;9.226;2024-01-15T14:52:23;4.57;;;3.80;;
18425;SDS011;9340;48.756;9.226;2024-01-15T14:54:51;4.17;;;3.77;;